Time;durP1;ratioP1;P1;durP2;ratioP2;P2;SDS_P1;SDS_P2;PMS_P1;PMS_P2;Temp;Humidity;BMP_temperature;BMP_pressure;BME280_temperature;BME280_humidity;BME280_pressure;Samples;Min_cycle;Max_cycle;Signal;HPM_P1;HPM_P2
2022/03/09 00:01:20;;;;;;;11.05;6.07;;;6.00;99.90;;;;;;4995237;28;20038;-58
2022/03/09 00:03:46;;;;;;;11.27;4.93;;;5.90;99.90;;;;;;4992368;28;20507;-57
2022/03/09 00:06:11;;;;;;;15.00;5.70;;;5.80;99.90;;;;;;4991874;28;20057;-56
2022/03/09 00:08:37;;;;;;;11.50;6.05;;;5.70;99.90;;;;;;4992328;28;20033;-58
2022/03/09 00:11:02;;;;;;;13.93;5.78;;;5.70;99.90;;;;;;4973411;28;20104;-57
2022/03/09 00:13:28;;;;;;;12.63;6.30;;;5.70;99.90;;;;;;4972774;28;20034;-56
2022/03/09 00:15:53;;;;;;;11.27;5.88;;;5.80;99.90;;;;;;4972542;28;20027;-57
2022/03/09 00:18:19;;;;;;;11.25;5.85;;;5.90;99.90;;;;;;4972880;28;20388;-57
2022/03/09 00:20:45;;;;;;;12.20;6.35;;;5.70;99.90;;;;;;4972793;28;20034;-57
2022/03/09 00:23:11;;;;;;;11.70;6.22;;;5.70;99.90;;;;;;4972911;28;20085;-59
2022/03/09 00:25:37;;;;;;;13.35;6.47;;;5.70;99.90;;;;;;4972121;28;20511;-56
2022/03/09 00:28:02;;;;;;;13.00;6.25;;;5.80;99.90;;;;;;4972770;28;20028;-58
2022/03/09 00:30:28;;;;;;;13.70;6.20;;;5.70;99.90;;;;;;4972824;28;20536;-57
2022/03/09 00:32:53;;;;;;;11.10;5.72;;;5.70;99.90;;;;;;4973004;28;20105;-58
2022/03/09 00:35:19;;;;;;;12.30;6.20;;;5.70;99.90;;;;;;4971520;28;20059;-58
2022/03/09 00:37:45;;;;;;;14.60;6.05;;;5.70;99.90;;;;;;4973021;28;20215;-58
2022/03/09 00:40:10;;;;;;;15.45;7.00;;;5.60;99.90;;;;;;4972584;28;20074;-58
2022/03/09 00:42:38;;;;;;;17.45;7.13;;;5.50;99.90;;;;;;4973095;28;20069;-58
2022/03/09 00:45:05;;;;;;;10.75;6.40;;;5.60;99.90;;;;;;4972349;28;20122;-57
2022/03/09 00:47:31;;;;;;;16.27;6.10;;;5.60;99.90;;;;;;4972600;28;20031;-57
2022/03/09 00:49:57;;;;;;;12.43;6.32;;;5.50;99.90;;;;;;4973469;28;20030;-56
2022/03/09 00:52:22;;;;;;;24.70;6.55;;;5.30;99.90;;;;;;4976783;28;20046;-57
2022/03/09 00:54:49;;;;;;;15.45;6.57;;;5.40;99.90;;;;;;4976381;28;20054;-57
2022/03/09 00:57:14;;;;;;;14.45;5.88;;;5.40;99.90;;;;;;4975865;28;20034;-57
2022/03/09 00:59:40;;;;;;;11.15;6.03;;;5.40;99.90;;;;;;4976462;28;20046;-58
2022/03/09 01:02:06;;;;;;;15.80;6.30;;;5.30;99.90;;;;;;4976362;28;20384;-57
2022/03/09 01:04:34;;;;;;;15.10;6.15;;;5.30;99.90;;;;;;4976256;28;20031;-58
2022/03/09 01:07:00;;;;;;;13.77;6.43;;;5.20;99.90;;;;;;4976005;28;20031;-58
2022/03/09 01:09:25;;;;;;;15.15;6.55;;;5.20;99.90;;;;;;4976006;28;20027;-59
2022/03/09 01:11:51;;;;;;;10.52;6.18;;;5.20;99.90;;;;;;4976058;28;20393;-57
2022/03/09 01:14:16;;;;;;;13.02;6.78;;;5.30;99.90;;;;;;4976116;28;20092;-56
2022/03/09 01:16:42;;;;;;;13.13;6.72;;;5.30;99.90;;;;;;4975806;28;20057;-58
2022/03/09 01:19:08;;;;;;;14.80;6.40;;;5.30;99.90;;;;;;4976052;28;20244;-58
2022/03/09 01:21:34;;;;;;;12.77;6.40;;;5.30;99.90;;;;;;4976064;28;20461;-58
2022/03/09 01:24:00;;;;;;;14.50;6.22;;;5.30;99.90;;;;;;4975765;28;20027;-58
2022/03/09 01:26:26;;;;;;;14.90;6.57;;;5.30;99.90;;;;;;4975295;28;20033;-57
2022/03/09 01:28:52;;;;;;;14.02;6.38;;;5.30;99.90;;;;;;4975998;28;20019;-58
2022/03/09 01:31:17;;;;;;;10.55;5.55;;;5.20;99.90;;;;;;4976398;28;20082;-58
2022/03/09 01:33:43;;;;;;;13.25;6.13;;;5.20;99.90;;;;;;4975651;28;20449;-58
2022/03/09 01:36:08;;;;;;;12.82;6.68;;;5.10;99.90;;;;;;4975202;28;20077;-58
2022/03/09 01:38:34;;;;;;;19.25;6.25;;;5.00;99.90;;;;;;4975608;28;20059;-57
2022/03/09 01:41:00;;;;;;;15.15;6.43;;;5.00;99.90;;;;;;4975447;28;20056;-58
2022/03/09 01:43:25;;;;;;;13.40;6.63;;;5.00;99.90;;;;;;4975873;28;20423;-57
2022/03/09 01:45:51;;;;;;;14.40;6.78;;;5.00;99.90;;;;;;4974884;28;20089;-58
2022/03/09 01:48:17;;;;;;;14.98;6.57;;;5.10;99.90;;;;;;4975291;28;20023;-56
2022/03/09 01:50:44;;;;;;;20.05;6.88;;;5.10;99.90;;;;;;4975545;28;20345;-54
2022/03/09 01:53:11;;;;;;;16.75;7.85;;;5.00;99.90;;;;;;4975421;28;20050;-56
2022/03/09 01:55:37;;;;;;;14.13;7.28;;;5.00;99.90;;;;;;4974897;28;20460;-54
2022/03/09 01:58:03;;;;;;;24.08;7.85;;;4.90;99.90;;;;;;4975303;28;20480;-55
2022/03/09 02:00:28;;;;;;;15.63;7.03;;;4.80;99.90;;;;;;4975222;28;20045;-56
2022/03/09 02:02:54;;;;;;;19.50;7.70;;;4.80;99.90;;;;;;4975328;28;20027;-55
2022/03/09 02:05:20;;;;;;;19.63;7.55;;;4.90;99.90;;;;;;4974589;28;20114;-56
2022/03/09 02:10:30;;;;;;;22.98;7.68;;;4.90;99.90;;;;;;4975578;28;20444;-55
2022/03/09 02:12:56;;;;;;;17.85;7.88;;;4.90;99.90;;;;;;4975151;28;20031;-56
2022/03/09 02:15:21;;;;;;;17.38;7.88;;;4.80;99.90;;;;;;4974693;28;20102;-55
2022/03/09 02:17:47;;;;;;;20.20;8.18;;;4.80;99.90;;;;;;4975026;28;20035;-56
2022/03/09 02:20:13;;;;;;;20.58;6.72;;;4.70;99.90;;;;;;4974191;28;20396;-56
2022/03/09 02:22:40;;;;;;;14.23;7.55;;;4.80;99.90;;;;;;4974794;28;20043;-57
2022/03/09 02:25:12;;;;;;;16.35;7.00;;;4.70;99.90;;;;;;4974146;28;20038;-58
2022/03/09 02:27:38;;;;;;;18.08;7.65;;;4.60;99.90;;;;;;4974956;28;20031;-58
2022/03/09 02:30:06;;;;;;;15.23;8.05;;;4.50;99.90;;;;;;4974922;28;20027;-57
2022/03/09 02:32:31;;;;;;;16.23;8.05;;;4.40;99.90;;;;;;4974675;28;20047;-57
2022/03/09 02:34:57;;;;;;;21.35;8.60;;;4.40;99.90;;;;;;4974575;28;20027;-56
2022/03/09 02:37:23;;;;;;;21.55;8.90;;;4.30;99.90;;;;;;4974866;28;20027;-57
2022/03/09 02:39:49;;;;;;;16.70;7.45;;;4.30;99.90;;;;;;4974460;28;20034;-58
2022/03/09 02:42:15;;;;;;;19.13;8.30;;;4.30;99.90;;;;;;4974846;28;20031;-57
2022/03/09 02:44:41;;;;;;;18.27;8.40;;;4.30;99.90;;;;;;4974657;28;20480;-57
2022/03/09 02:47:06;;;;;;;19.73;8.15;;;4.30;99.90;;;;;;4973956;28;20031;-56
2022/03/09 02:49:32;;;;;;;21.17;8.68;;;4.30;99.90;;;;;;4974671;28;20578;-55
2022/03/09 02:51:58;;;;;;;18.45;8.65;;;4.30;99.90;;;;;;4974561;28;20050;-56
2022/03/09 02:54:24;;;;;;;16.67;8.10;;;4.20;99.90;;;;;;4974331;28;20459;-56
2022/03/09 02:56:50;;;;;;;19.90;7.90;;;4.30;99.90;;;;;;4973799;28;20114;-57
2022/03/09 02:59:15;;;;;;;18.92;7.78;;;4.20;99.90;;;;;;4974125;28;20104;-57
2022/03/09 03:01:41;;;;;;;15.20;8.02;;;4.20;99.90;;;;;;4974307;28;20130;-57
2022/03/09 03:04:07;;;;;;;14.88;7.57;;;4.20;99.90;;;;;;4974323;28;20038;-56
2022/03/09 03:06:32;;;;;;;13.77;7.68;;;4.20;99.90;;;;;;4973559;28;20023;-55
2022/03/09 03:08:58;;;;;;;15.13;7.78;;;4.20;99.90;;;;;;4973848;28;20069;-57
2022/03/09 03:11:24;;;;;;;16.60;7.47;;;4.10;99.90;;;;;;4974024;28;20038;-55
2022/03/09 03:13:49;;;;;;;12.88;7.05;;;4.10;99.90;;;;;;4973812;28;20473;-58
2022/03/09 03:16:15;;;;;;;16.83;7.80;;;4.10;99.90;;;;;;4973361;28;20361;-57
2022/03/09 03:18:41;;;;;;;15.93;7.90;;;4.10;99.90;;;;;;4973750;28;20077;-57
2022/03/09 03:21:07;;;;;;;15.02;7.45;;;4.10;99.90;;;;;;4973816;28;20547;-57
2022/03/09 03:23:35;;;;;;;15.68;8.30;;;4.00;99.90;;;;;;4973499;28;20505;-57
2022/03/09 03:26:01;;;;;;;17.63;7.15;;;4.00;99.90;;;;;;4973344;28;20078;-57
2022/03/09 03:28:28;;;;;;;17.38;8.35;;;3.90;99.90;;;;;;4973747;28;20054;-55
2022/03/09 03:30:54;;;;;;;18.42;7.38;;;3.90;99.90;;;;;;4973963;28;20059;-58
2022/03/09 03:33:20;;;;;;;17.42;7.93;;;3.90;99.90;;;;;;4973489;28;20073;-56
2022/03/09 03:35:47;;;;;;;17.88;8.55;;;3.90;99.90;;;;;;4973170;28;20045;-57
2022/03/09 03:38:13;;;;;;;14.57;8.40;;;3.80;99.90;;;;;;4973574;28;20059;-55
2022/03/09 03:40:39;;;;;;;20.92;8.95;;;3.70;99.90;;;;;;4973867;28;20125;-55
2022/03/09 03:43:05;;;;;;;22.27;9.32;;;3.80;99.90;;;;;;4973734;28;20369;-55
2022/03/09 03:45:31;;;;;;;22.45;9.00;;;3.70;99.90;;;;;;4973766;28;20039;-56
2022/03/09 03:47:57;;;;;;;20.23;9.13;;;3.70;99.90;;;;;;4974591;28;20027;-56
2022/03/09 03:50:23;;;;;;;20.33;9.55;;;3.70;99.90;;;;;;4974304;28;20423;-57
2022/03/09 03:52:49;;;;;;;20.95;8.85;;;3.70;99.90;;;;;;4973845;28;20102;-56
2022/03/09 03:55:15;;;;;;;19.55;8.88;;;3.70;99.90;;;;;;4973384;28;20047;-57
2022/03/09 03:57:41;;;;;;;20.75;9.15;;;3.70;99.90;;;;;;4973428;28;20031;-57
2022/03/09 04:00:08;;;;;;;22.13;9.63;;;3.60;99.90;;;;;;4973021;28;20508;-57
2022/03/09 04:02:34;;;;;;;20.00;8.98;;;3.60;99.90;;;;;;4973028;28;20042;-55
2022/03/09 04:05:00;;;;;;;20.25;8.93;;;3.50;99.90;;;;;;4972684;28;20050;-57
2022/03/09 04:07:26;;;;;;;17.90;9.32;;;3.60;99.90;;;;;;4973339;28;20086;-57
2022/03/09 04:09:51;;;;;;;23.73;9.80;;;3.60;99.90;;;;;;4973028;28;20413;-58
2022/03/09 04:12:17;;;;;;;22.02;8.43;;;3.60;99.90;;;;;;4973334;28;20019;-56
2022/03/09 04:14:43;;;;;;;22.15;8.88;;;3.50;99.90;;;;;;4973127;28;20452;-54
2022/03/09 04:17:08;;;;;;;20.20;8.38;;;3.50;99.90;;;;;;4972490;28;20067;-56
2022/03/09 04:19:34;;;;;;;17.52;7.68;;;3.40;99.90;;;;;;4973001;28;20117;-54
2022/03/09 04:21:59;;;;;;;20.13;7.75;;;3.40;99.90;;;;;;4972983;28;20031;-56
2022/03/09 04:24:25;;;;;;;13.70;7.32;;;3.40;99.90;;;;;;4972155;28;20066;-55
2022/03/09 04:26:51;;;;;;;15.93;8.48;;;3.40;99.90;;;;;;4972033;28;20050;-56
2022/03/09 04:29:17;;;;;;;14.98;7.18;;;3.30;99.90;;;;;;4972736;28;20034;-56
2022/03/09 04:31:42;;;;;;;15.05;7.57;;;3.30;99.90;;;;;;4972952;28;20039;-54
2022/03/09 04:34:09;;;;;;;16.63;7.20;;;3.30;99.90;;;;;;4971815;28;20051;-54
2022/03/09 04:36:36;;;;;;;19.98;8.25;;;3.10;99.90;;;;;;4971066;28;20030;-54
2022/03/09 04:39:02;;;;;;;21.30;7.78;;;3.10;99.90;;;;;;4972846;28;20479;-54
2022/03/09 04:41:28;;;;;;;13.10;7.47;;;3.10;99.90;;;;;;4972736;28;20035;-56
2022/03/09 04:43:53;;;;;;;14.80;7.57;;;3.10;99.90;;;;;;4972856;28;20046;-56
2022/03/09 04:46:19;;;;;;;16.90;7.68;;;3.10;99.90;;;;;;4986950;28;20030;-56
2022/03/09 04:48:45;;;;;;;17.77;7.95;;;3.00;99.90;;;;;;4973027;28;20023;-56
2022/03/09 04:51:10;;;;;;;15.73;8.73;;;3.00;99.90;;;;;;4972663;28;20023;-56
2022/03/09 04:53:36;;;;;;;18.23;7.65;;;3.00;99.90;;;;;;4972725;28;20027;-55
2022/03/09 04:56:02;;;;;;;16.77;8.48;;;3.00;99.90;;;;;;4972062;28;20035;-55
2022/03/09 04:58:28;;;;;;;18.65;8.95;;;3.00;99.90;;;;;;4972522;28;20023;-54
2022/03/09 05:00:53;;;;;;;15.27;7.55;;;3.00;99.90;;;;;;4987343;28;20066;-55
2022/03/09 05:03:19;;;;;;;21.63;8.43;;;2.90;99.90;;;;;;4972735;28;20097;-56
2022/03/09 05:05:45;;;;;;;16.10;8.60;;;2.90;99.90;;;;;;4971795;28;20046;-56
2022/03/09 05:08:10;;;;;;;14.82;8.50;;;2.90;99.90;;;;;;4972468;28;20058;-55
2022/03/09 05:10:37;;;;;;;17.42;8.57;;;3.00;99.90;;;;;;4972340;28;20035;-56
2022/03/09 05:13:03;;;;;;;18.17;8.50;;;2.90;99.90;;;;;;4972411;28;20082;-56
2022/03/09 05:15:29;;;;;;;16.75;8.73;;;3.00;99.90;;;;;;4971774;28;20094;-56
2022/03/09 05:17:55;;;;;;;18.27;8.45;;;2.90;99.90;;;;;;4972269;28;20035;-56
2022/03/09 05:20:21;;;;;;;23.05;8.80;;;2.80;99.90;;;;;;4972292;28;20039;-55
2022/03/09 05:22:48;;;;;;;16.73;8.48;;;2.90;99.90;;;;;;4972317;28;20035;-56
2022/03/09 05:25:13;;;;;;;18.42;7.95;;;2.80;99.90;;;;;;4971730;28;20409;-58
2022/03/09 05:27:40;;;;;;;18.75;8.43;;;2.80;99.90;;;;;;4972170;28;20027;-56
2022/03/09 05:30:07;;;;;;;18.17;8.73;;;2.80;99.90;;;;;;4972161;28;20030;-56
2022/03/09 05:32:33;;;;;;;22.83;9.23;;;2.80;99.90;;;;;;4972379;28;20023;-55
2022/03/09 05:34:58;;;;;;;19.90;9.25;;;2.80;99.90;;;;;;4971741;28;20030;-57
2022/03/09 05:37:24;;;;;;;16.80;8.75;;;2.80;99.90;;;;;;4975282;28;20042;-55
2022/03/09 05:39:50;;;;;;;19.30;9.38;;;2.80;99.90;;;;;;4974408;28;20035;-56
2022/03/09 05:42:15;;;;;;;18.80;8.98;;;2.90;99.90;;;;;;4975723;28;20113;-56
2022/03/09 05:44:41;;;;;;;23.30;9.55;;;2.80;99.90;;;;;;4975583;28;20031;-56
2022/03/09 05:47:07;;;;;;;21.70;10.00;;;2.80;99.90;;;;;;4974917;28;20042;-55
2022/03/09 05:49:33;;;;;;;22.80;10.15;;;2.80;99.90;;;;;;4975527;28;20019;-56
2022/03/09 05:51:59;;;;;;;17.30;9.02;;;2.80;99.90;;;;;;4975584;28;20393;-56
2022/03/09 05:54:24;;;;;;;26.52;9.40;;;2.80;99.90;;;;;;4975706;28;20511;-55
2022/03/09 05:56:50;;;;;;;19.52;9.38;;;2.80;99.90;;;;;;4975014;28;20480;-55
2022/03/09 05:59:17;;;;;;;22.88;9.52;;;2.80;99.90;;;;;;4974317;28;20041;-56
2022/03/09 06:01:43;;;;;;;20.83;10.32;;;2.80;99.90;;;;;;4975467;28;20038;-55
2022/03/09 06:04:09;;;;;;;18.75;9.32;;;2.80;99.90;;;;;;4975619;28;20031;-55
2022/03/09 06:06:35;;;;;;;27.27;10.25;;;2.90;99.90;;;;;;4974779;28;20085;-56
2022/03/09 06:09:00;;;;;;;26.45;10.07;;;2.90;99.90;;;;;;4975497;28;20026;-56
2022/03/09 06:11:27;;;;;;;29.52;11.45;;;2.90;99.90;;;;;;4975380;28;20062;-56
2022/03/09 06:13:52;;;;;;;32.75;12.02;;;2.90;99.90;;;;;;4974840;28;20027;-56
2022/03/09 06:16:18;;;;;;;31.25;12.43;;;2.90;99.90;;;;;;4986852;28;20042;-58
2022/03/09 06:18:46;;;;;;;41.10;12.90;;;3.00;99.90;;;;;;4985830;28;20026;-58
2022/03/09 06:21:13;;;;;;;28.17;11.10;;;3.00;99.90;;;;;;4986464;28;20026;-56
2022/03/09 06:23:39;;;;;;;29.58;12.15;;;2.90;99.90;;;;;;4990942;28;20025;-57
2022/03/09 06:26:05;;;;;;;28.30;12.25;;;2.90;99.90;;;;;;4987927;28;20026;-56
2022/03/09 06:28:31;;;;;;;35.78;12.60;;;2.90;99.90;;;;;;4997055;28;20075;-54
2022/03/09 06:30:56;;;;;;;41.08;13.63;;;2.90;99.90;;;;;;4995016;28;20494;-55
2022/03/09 06:33:22;;;;;;;57.90;13.15;;;2.90;99.90;;;;;;4992752;28;20435;-58
2022/03/09 06:35:47;;;;;;;38.20;12.10;;;2.80;99.90;;;;;;4992101;28;20550;-55
2022/03/09 06:38:13;;;;;;;33.13;13.13;;;2.90;99.90;;;;;;4992653;28;20038;-57
2022/03/09 06:40:39;;;;;;;51.55;12.52;;;2.80;99.90;;;;;;4990885;28;20391;-56
2022/03/09 06:43:05;;;;;;;44.25;13.65;;;2.90;99.90;;;;;;4993311;28;20419;-57
2022/03/09 06:45:30;;;;;;;41.42;13.07;;;2.90;99.90;;;;;;4991634;28;20022;-54
2022/03/09 06:47:56;;;;;;;36.13;14.00;;;2.90;99.90;;;;;;4991864;28;20027;-56
2022/03/09 06:50:22;;;;;;;29.13;11.80;;;2.90;99.90;;;;;;4991422;28;20420;-55
2022/03/09 06:52:47;;;;;;;50.28;13.10;;;3.00;99.90;;;;;;4993099;28;20034;-54
2022/03/09 06:55:13;;;;;;;33.85;13.85;;;2.90;99.90;;;;;;4991962;28;20117;-54
2022/03/09 06:57:40;;;;;;;30.98;10.95;;;3.00;99.90;;;;;;4992423;28;20033;-55
2022/03/09 07:00:14;;;;;;;34.20;12.43;;;3.00;99.90;;;;;;4992349;28;20077;-55
2022/03/09 07:02:40;;;;;;;26.25;11.45;;;3.10;99.90;;;;;;5003759;28;20057;-53
2022/03/09 07:05:07;;;;;;;24.05;11.95;;;3.10;99.90;;;;;;5009983;28;20026;-55
2022/03/09 07:07:32;;;;;;;32.42;11.63;;;3.20;99.90;;;;;;5011688;28;20145;-57
2022/03/09 07:09:58;;;;;;;31.48;11.57;;;3.20;99.90;;;;;;5011725;28;20105;-55
2022/03/09 07:12:24;;;;;;;32.85;10.75;;;3.20;99.90;;;;;;5011642;28;20030;-54
2022/03/09 07:14:50;;;;;;;26.27;10.45;;;3.20;99.90;;;;;;5000875;28;20037;-56
2022/03/09 07:17:16;;;;;;;25.65;9.95;;;3.20;99.90;;;;;;4969500;28;20031;-54
2022/03/09 07:19:42;;;;;;;20.55;10.05;;;3.30;99.90;;;;;;4969247;28;20027;-55
2022/03/09 07:22:07;;;;;;;23.45;9.88;;;3.30;99.90;;;;;;4971273;28;20047;-55
2022/03/09 07:24:34;;;;;;;19.90;9.38;;;3.30;99.90;;;;;;4969647;28;20160;-55
2022/03/09 07:26:59;;;;;;;20.25;9.70;;;3.30;99.90;;;;;;4969025;28;20053;-55
2022/03/09 07:29:25;;;;;;;24.55;9.80;;;3.40;99.90;;;;;;4967387;28;20483;-57
2022/03/09 07:31:52;;;;;;;18.23;8.85;;;3.50;99.90;;;;;;4970756;28;20112;-58
2022/03/09 07:34:19;;;;;;;21.55;9.77;;;3.50;99.90;;;;;;4969237;28;20034;-58
2022/03/09 07:36:44;;;;;;;24.92;10.43;;;3.60;99.90;;;;;;4968034;28;20543;-56
2022/03/09 07:39:10;;;;;;;27.65;10.57;;;3.70;99.90;;;;;;4973639;28;20089;-57
2022/03/09 07:41:36;;;;;;;22.98;11.10;;;3.70;99.90;;;;;;4984225;28;20173;-59
2022/03/09 07:44:01;;;;;;;25.20;10.40;;;3.80;99.90;;;;;;4985242;28;20412;-57
2022/03/09 07:46:27;;;;;;;32.47;11.30;;;3.80;99.90;;;;;;4997434;28;20033;-59
2022/03/09 07:48:53;;;;;;;27.17;10.35;;;3.90;99.90;;;;;;5000342;28;20315;-59
2022/03/09 07:51:18;;;;;;;37.15;10.98;;;3.80;99.90;;;;;;4999867;28;20056;-59
2022/03/09 07:53:45;;;;;;;25.48;10.45;;;4.00;99.90;;;;;;5003553;28;20483;-60
2022/03/09 07:56:11;;;;;;;22.95;10.63;;;4.10;99.90;;;;;;5010679;28;20041;-58
2022/03/09 07:58:37;;;;;;;28.58;10.32;;;4.10;99.90;;;;;;5011104;28;20042;-59
2022/03/09 08:01:03;;;;;;;22.88;10.02;;;4.20;99.90;;;;;;4998989;28;20045;-59
2022/03/09 08:03:29;;;;;;;25.55;9.82;;;4.20;99.90;;;;;;4971986;28;20101;-58
2022/03/09 08:05:55;;;;;;;31.95;9.65;;;4.30;99.90;;;;;;4971318;28;20054;-59
2022/03/09 08:08:20;;;;;;;29.10;9.75;;;4.40;99.90;;;;;;4970491;28;20066;-58
2022/03/09 08:10:46;;;;;;;26.23;9.75;;;4.50;99.90;;;;;;4971937;28;20035;-58
2022/03/09 08:13:11;;;;;;;32.80;10.02;;;4.50;99.90;;;;;;4971952;28;20026;-59
2022/03/09 08:15:37;;;;;;;26.10;9.55;;;4.60;99.90;;;;;;4971148;28;20035;-59
2022/03/09 08:18:03;;;;;;;21.42;8.80;;;4.60;99.90;;;;;;4971788;28;20555;-61
2022/03/09 08:20:29;;;;;;;16.95;9.30;;;4.70;99.90;;;;;;4971616;28;20030;-60
2022/03/09 08:22:55;;;;;;;23.23;9.40;;;4.60;99.90;;;;;;4971480;28;20030;-61
2022/03/09 08:25:20;;;;;;;28.13;9.38;;;4.70;99.90;;;;;;4971010;28;20039;-59
2022/03/09 08:27:46;;;;;;;21.35;9.25;;;4.80;99.90;;;;;;4972248;28;20034;-59
2022/03/09 08:30:12;;;;;;;23.73;8.38;;;4.80;99.90;;;;;;4990255;28;20069;-59
2022/03/09 08:32:37;;;;;;;24.38;9.80;;;4.90;99.90;;;;;;5004162;28;20111;-58
2022/03/09 08:35:04;;;;;;;20.73;8.60;;;5.00;99.90;;;;;;4993786;28;20437;-61
2022/03/09 08:37:30;;;;;;;25.48;8.70;;;5.00;99.90;;;;;;4999914;28;20520;-61
2022/03/09 08:39:55;;;;;;;17.83;7.80;;;5.00;99.90;;;;;;5010983;28;20061;-60
2022/03/09 08:42:22;;;;;;;18.33;8.60;;;5.30;99.90;;;;;;4993727;28;20038;-61
2022/03/09 08:44:47;;;;;;;16.27;8.02;;;5.40;99.90;;;;;;4991035;28;20035;-59
2022/03/09 08:47:13;;;;;;;19.67;8.23;;;5.60;99.90;;;;;;4985628;28;20035;-60
2022/03/09 08:49:40;;;;;;;23.67;9.02;;;5.50;99.90;;;;;;4984374;28;20492;-56
2022/03/09 08:52:11;;;;;;;23.20;8.55;;;5.50;99.90;;;;;;4978953;28;20043;-55
2022/03/09 08:54:37;;;;;;;21.58;8.65;;;5.60;99.90;;;;;;4971620;28;20477;-54
2022/03/09 08:57:04;;;;;;;26.58;8.55;;;5.60;99.90;;;;;;4988560;28;20030;-54
2022/03/09 08:59:29;;;;;;;21.13;9.32;;;5.60;99.90;;;;;;4996543;28;20495;-58
2022/03/09 09:01:55;;;;;;;17.27;7.68;;;5.70;99.90;;;;;;5010418;28;20083;-59
2022/03/09 09:04:21;;;;;;;27.23;8.50;;;5.80;99.90;;;;;;5009753;28;20087;-59
2022/03/09 09:06:46;;;;;;;26.73;8.00;;;5.90;99.90;;;;;;5009809;28;20399;-59
2022/03/09 09:09:14;;;;;;;19.08;7.65;;;5.90;99.90;;;;;;4991118;28;20073;-58
2022/03/09 09:11:40;;;;;;;17.42;8.10;;;6.10;99.90;;;;;;4992419;28;20113;-59
2022/03/09 09:14:06;;;;;;;20.98;7.55;;;6.10;99.90;;;;;;4994870;28;20030;-58
2022/03/09 09:16:32;;;;;;;19.13;7.53;;;6.30;99.90;;;;;;4993892;28;20042;-58
2022/03/09 09:18:58;;;;;;;16.38;7.85;;;6.40;99.90;;;;;;4994411;28;20022;-59
2022/03/09 09:21:23;;;;;;;18.30;7.85;;;6.50;99.90;;;;;;4998128;28;20026;-56
2022/03/09 09:23:49;;;;;;;16.40;7.53;;;6.50;99.90;;;;;;5014222;28;20030;-58
2022/03/09 09:26:15;;;;;;;16.48;7.82;;;6.60;99.90;;;;;;5007421;28;20039;-59
2022/03/09 09:28:42;;;;;;;13.27;7.00;;;6.50;99.90;;;;;;4976540;28;20026;-59
2022/03/09 09:31:07;;;;;;;14.88;7.82;;;6.60;99.90;;;;;;4992776;28;20360;-59
2022/03/09 09:33:33;;;;;;;17.25;6.72;;;6.90;99.90;;;;;;4994000;28;20022;-59
2022/03/09 09:35:59;;;;;;;13.23;6.38;;;7.20;99.90;;;;;;4987656;28;20031;-58
2022/03/09 09:38:24;;;;;;;16.27;7.00;;;7.20;99.90;;;;;;4974394;28;20110;-58
2022/03/09 09:40:53;;;;;;;17.13;7.78;;;7.30;99.90;;;;;;4974715;28;20035;-57
2022/03/09 09:43:19;;;;;;;17.63;7.15;;;7.50;99.90;;;;;;4974344;28;20038;-58
2022/03/09 09:45:44;;;;;;;15.00;7.93;;;7.60;99.90;;;;;;4974226;28;20438;-58
2022/03/09 09:48:11;;;;;;;21.58;6.93;;;7.70;99.90;;;;;;4974653;28;20480;-59
2022/03/09 09:50:38;;;;;;;21.00;7.13;;;7.80;99.90;;;;;;4974434;28;20041;-59
2022/03/09 09:53:06;;;;;;;16.55;7.55;;;7.90;99.90;;;;;;4974837;28;20054;-58
2022/03/09 09:55:32;;;;;;;20.92;8.05;;;8.00;99.90;;;;;;4973968;28;20023;-57
2022/03/09 09:57:59;;;;;;;25.10;10.27;;;8.00;99.90;;;;;;4974712;28;20027;-60
2022/03/09 10:00:24;;;;;;;19.77;7.70;;;8.20;99.90;;;;;;4972917;28;20493;-59
2022/03/09 10:02:51;;;;;;;22.17;7.28;;;8.50;99.90;;;;;;4974555;28;20038;-59
2022/03/09 10:05:18;;;;;;;22.52;8.30;;;8.50;99.90;;;;;;4973480;28;20117;-60
2022/03/09 10:08:02;;;;;;;16.52;7.07;;;8.80;99.90;;;;;;4974376;28;20035;-58
2022/03/09 10:10:29;;;;;;;17.00;7.70;;;8.90;99.90;;;;;;4973774;28;20054;-58
2022/03/09 10:13:15;;;;;;;14.15;7.28;;;9.10;99.90;;;;;;4972604;28;20519;-58
2022/03/09 10:15:41;;;;;;;15.68;7.70;;;9.20;99.90;;;;;;4973255;28;20031;-58
2022/03/09 10:18:15;;;;;;;26.67;8.45;;;9.30;99.90;;;;;;4974087;28;20415;-58
2022/03/09 10:20:41;;;;;;;18.75;8.02;;;9.40;99.90;;;;;;4973752;28;20027;-58
2022/03/09 10:23:08;;;;;;;16.10;8.10;;;9.50;99.90;;;;;;4987927;28;20048;-58
2022/03/09 10:25:35;;;;;;;19.83;7.82;;;9.40;99.90;;;;;;4992365;28;20034;-59
2022/03/09 10:28:08;;;;;;;23.92;8.35;;;9.60;99.90;;;;;;4993196;28;20027;-59
2022/03/09 10:30:36;;;;;;;21.83;8.15;;;9.50;99.90;;;;;;4995759;28;20476;-59
2022/03/09 10:33:04;;;;;;;19.13;7.60;;;9.60;99.10;;;;;;4990733;28;20485;-58
2022/03/09 10:35:30;;;;;;;14.85;7.75;;;9.50;98.70;;;;;;4996713;28;20073;-55
2022/03/09 10:38:14;;;;;;;18.25;7.15;;;9.50;99.20;;;;;;4993371;28;20065;-58
2022/03/09 10:40:51;;;;;;;15.23;7.15;;;9.60;98.60;;;;;;4989139;28;20033;-57
2022/03/09 10:43:21;;;;;;;16.00;7.65;;;9.70;97.70;;;;;;5005392;28;20134;-60
2022/03/09 10:46:04;;;;;;;22.85;7.90;;;9.70;96.70;;;;;;5003377;28;20113;-59
2022/03/09 10:48:50;;;;;;;17.38;7.47;;;9.80;97.80;;;;;;5008187;28;20053;-57
2022/03/09 10:51:30;;;;;;;14.18;7.65;;;10.00;96.00;;;;;;4973658;28;20027;-59
2022/03/09 10:53:57;;;;;;;16.27;8.18;;;10.10;95.50;;;;;;4990492;28;20030;-55
2022/03/09 10:56:23;;;;;;;15.98;7.82;;;10.30;94.60;;;;;;4992008;28;20027;-57
2022/03/09 10:58:49;;;;;;;16.35;7.32;;;10.40;91.80;;;;;;4992669;28;20030;-57
2022/03/09 11:01:17;;;;;;;14.15;7.60;;;10.60;91.80;;;;;;4992548;28;20031;-57
2022/03/09 11:03:43;;;;;;;20.17;8.27;;;10.90;83.80;;;;;;5001049;28;20026;-56
2022/03/09 11:06:10;;;;;;;12.77;7.60;;;11.20;81.40;;;;;;4998841;28;20035;-59
2022/03/09 11:08:38;;;;;;;15.57;7.68;;;11.30;78.90;;;;;;5008004;28;20029;-58
2022/03/09 11:11:06;;;;;;;13.95;7.57;;;11.30;79.10;;;;;;5003241;28;20022;-59
2022/03/09 11:13:35;;;;;;;21.42;8.65;;;11.40;79.20;;;;;;4992342;28;20034;-57
2022/03/09 11:16:01;;;;;;;14.55;7.60;;;11.60;76.90;;;;;;4989275;28;20030;-56
2022/03/09 11:18:29;;;;;;;14.77;7.75;;;11.90;74.20;;;;;;4991735;28;20038;-57
2022/03/09 11:20:57;;;;;;;20.13;8.95;;;11.90;74.40;;;;;;4972785;28;20400;-58
2022/03/09 11:23:24;;;;;;;16.73;8.77;;;11.70;74.40;;;;;;4980237;28;20022;-56
2022/03/09 11:25:58;;;;;;;13.27;7.63;;;11.90;74.80;;;;;;5003802;28;20546;-55
2022/03/09 11:28:26;;;;;;;20.15;8.43;;;11.90;75.80;;;;;;5011873;28;20080;-57
2022/03/09 11:30:58;;;;;;;15.73;8.00;;;12.00;76.10;;;;;;5010414;28;20026;-58
2022/03/09 11:33:42;;;;;;;15.88;7.90;;;12.10;75.10;;;;;;4993002;28;20050;-55
2022/03/09 11:36:29;;;;;;;19.13;9.65;;;11.90;75.70;;;;;;4988584;28;20014;-56
2022/03/09 11:39:03;;;;;;;15.52;7.85;;;12.20;75.30;;;;;;4983893;28;20030;-60
2022/03/09 11:41:35;;;;;;;15.63;8.10;;;12.10;74.60;;;;;;4988921;28;20030;-59
2022/03/09 11:44:19;;;;;;;14.00;7.90;;;12.30;74.60;;;;;;4976774;28;20142;-57
2022/03/09 11:46:57;;;;;;;22.17;8.32;;;12.40;73.40;;;;;;4990436;28;20025;-59
2022/03/09 11:49:23;;;;;;;21.13;8.82;;;12.60;74.30;;;;;;4990055;28;20030;-57
2022/03/09 11:52:09;;;;;;;17.38;8.43;;;12.70;72.40;;;;;;4974390;28;20503;-59
2022/03/09 11:54:43;;;;;;;14.95;7.95;;;12.80;72.00;;;;;;4983899;28;20080;-57
2022/03/09 11:57:13;;;;;;;19.77;7.70;;;13.30;67.90;;;;;;4990007;28;20395;-58
2022/03/09 11:59:39;;;;;;;17.80;8.07;;;13.40;64.60;;;;;;4984293;28;20027;-60
2022/03/09 12:02:15;;;;;;;13.52;7.93;;;13.90;62.70;;;;;;4972280;28;20583;-60
2022/03/09 12:04:42;;;;;;;15.10;7.95;;;14.50;61.50;;;;;;4972019;28;20031;-59
2022/03/09 12:07:08;;;;;;;16.73;7.90;;;15.30;58.30;;;;;;4979267;28;20030;-57
2022/03/09 12:09:59;;;;;;;18.63;6.80;;;15.90;56.10;;;;;;4991061;28;20106;-60
2022/03/09 12:12:27;;;;;;;15.00;8.07;;;17.00;50.80;;;;;;4989063;28;20022;-61
2022/03/09 12:15:16;;;;;;;15.80;7.50;;;17.60;49.40;;;;;;4971505;28;20041;-61
2022/03/09 12:17:49;;;;;;;15.00;7.45;;;18.30;48.40;;;;;;4972388;28;20035;-61
2022/03/09 12:20:24;;;;;;;12.80;7.10;;;18.60;47.00;;;;;;4972037;28;20030;-61
2022/03/09 12:22:56;;;;;;;15.10;6.80;;;18.90;44.50;;;;;;4971129;28;20535;-60
2022/03/09 12:25:40;;;;;;;14.15;6.82;;;18.90;43.80;;;;;;4979244;28;20117;-61
2022/03/09 12:28:31;;;;;;;13.30;7.22;;;19.20;43.10;;;;;;4991105;28;20026;-58
2022/03/09 12:31:03;;;;;;;15.75;7.00;;;19.60;41.50;;;;;;4983257;28;20525;-61
2022/03/09 12:33:39;;;;;;;12.90;6.90;;;20.00;41.40;;;;;;4979714;28;20029;-60
2022/03/09 12:36:09;;;;;;;12.35;6.78;;;19.40;40.70;;;;;;4976971;28;20031;-60
2022/03/09 12:38:39;;;;;;;12.93;6.72;;;19.00;41.50;;;;;;4989678;28;20383;-60
2022/03/09 12:41:06;;;;;;;12.88;6.50;;;19.00;40.60;;;;;;4990792;28;20049;-60
2022/03/09 12:43:48;;;;;;;11.20;7.13;;;19.50;41.10;;;;;;4990746;28;20030;-60
2022/03/09 12:46:14;;;;;;;;;;;19.60;40.10;;;;;;4972679;28;20039;-60